Sacramento, CA (94256)

11:11 PM PDT on August 31, 2016 (GMT -0700)
Mansion Flats | | Change Station

Elev 24 ft 38.58 °N, 121.48 °W | Updated 15 seconds ago

Clear
Clear
68.6 °F
Feels Like 68.6 °F
N
1.0
Wind Variable Wind from SE
Gusts 5.3 mph

Today
High -- | Low -- °F
--% Chance of Precip.
Yesterday
High -- | Low -- °F
Precip. -- in
Pressure 29.88 in
Visibility 10.0 miles
Clouds Clear
Dew Point 58 °F
Humidity 69%
Rainfall 0.00 in
Snow Depth Not available.
6:34 AM 7:36 PM
Waning Crescent, 0% visible
METAR KSAC 010553Z AUTO 18004KT 10SM CLR 19/13 A2988 RMK AO2 SLP117 T01890128 10306 20189 51011
Pressure 29.88 in
Visibility 10.0 miles
Clouds Clear
Dew Point 58 °F
Humidity 69%
Rainfall 0.00 in
Snow Depth Not available.
6:34 AM 7:36 PM
Waning Crescent, 0% visible
METAR KSAC 010553Z AUTO 18004KT 10SM CLR 19/13 A2988 RMK AO2 SLP117 T01890128 10306 20189 51011

10-Day Weather Forecast

Almanac

Astronomy

Aug. 31, 2016 Rise Set
Actual Time
Civil Twilight
Nautical Twilight
Astronomical Twilight
Moon
Length of Visible Light
Length of Day
Tomorrow will be .
, % of the Moon is Illuminated

Today's Extremes

State Highs State Lows

Community

WunderPhotos

Upload Photos

1,936,313 photos uploaded!

WunderBlog® & News

Nearby

Air Quality

  Air Quality AQ Index Pollutant
Not available.

Snow Depth

Station Depth Elevation

Earthquake Activity

City Distance Mag. Time & Date
Minimum magnitude displayed is 2.5.

Coastal Water Temperatures

Place Temperature

Stations

Nearby Weather Stations

Station Location Temp. Windchill Dew Point Humidity Wind Precip. Elev Updated Type
                   

Watches & Warnings

There are currently no watches in effect.